Terminal Aerodrome Forecast
Issued by NWS Kansas City/Pleasant Hill, MO

Home | Current Version | Previous Version | Text Only | Print | Product List | Glossary On
Versions: 1 2 3 4 5 6 7 8 9 10 11 12
391
FTUS43 KEAX 251729
TAFMCI
TAF
KMCI 251729Z 2518/2618 VRB04KT P6SM OVC150
     FM260200 07004KT P6SM FEW200=

USA.gov is the U.S. government's official web portal to all federal, state and local government web resources and services.